sensor_id;sensor_type;location;lat;lon;timestamp;pressure;altitude;pressure_sealevel;temperature;humidity
64053;BME280;50299;49.524;8.536;2023-03-22T00:02:01;100322.03;;;8.34;68.44
64053;BME280;50299;49.524;8.536;2023-03-22T00:04:28;100323.78;;;8.22;66.27
64053;BME280;50299;49.524;8.536;2023-03-22T00:06:56;100323.47;;;8.23;64.31
64053;BME280;50299;49.524;8.536;2023-03-22T00:09:22;100323.50;;;8.32;67.54
64053;BME280;50299;49.524;8.536;2023-03-22T00:11:48;100324.31;;;8.32;66.08
64053;BME280;50299;49.524;8.536;2023-03-22T00:14:17;100318.31;;;8.30;65.09
64053;BME280;50299;49.524;8.536;2023-03-22T00:16:44;100320.91;;;8.27;65.71
64053;BME280;50299;49.524;8.536;2023-03-22T00:19:11;100314.88;;;8.25;65.70
64053;BME280;50299;49.524;8.536;2023-03-22T00:21:38;100317.31;;;8.26;67.07
64053;BME280;50299;49.524;8.536;2023-03-22T00:24:05;100308.59;;;8.33;67.67
64053;BME280;50299;49.524;8.536;2023-03-22T00:26:31;100305.88;;;8.42;67.63
64053;BME280;50299;49.524;8.536;2023-03-22T00:28:58;100313.16;;;8.37;63.28
64053;BME280;50299;49.524;8.536;2023-03-22T00:31:24;100301.84;;;8.39;64.98
64053;BME280;50299;49.524;8.536;2023-03-22T00:33:50;100297.31;;;8.43;64.96
64053;BME280;50299;49.524;8.536;2023-03-22T00:36:17;100292.47;;;8.49;67.55
64053;BME280;50299;49.524;8.536;2023-03-22T00:38:43;100299.94;;;8.48;64.63
64053;BME280;50299;49.524;8.536;2023-03-22T00:43:39;100294.09;;;8.58;66.04
64053;BME280;50299;49.524;8.536;2023-03-22T00:46:07;100298.56;;;8.68;67.77
64053;BME280;50299;49.524;8.536;2023-03-22T00:48:33;100287.88;;;8.75;65.33
64053;BME280;50299;49.524;8.536;2023-03-22T00:51:00;100285.44;;;8.82;65.16
64053;BME280;50299;49.524;8.536;2023-03-22T00:53:27;100284.81;;;8.77;64.24
64053;BME280;50299;49.524;8.536;2023-03-22T00:55:58;100284.63;;;8.73;65.05
64053;BME280;50299;49.524;8.536;2023-03-22T00:58:24;100275.22;;;8.74;66.43
64053;BME280;50299;49.524;8.536;2023-03-22T01:00:51;100270.84;;;8.65;64.44
64053;BME280;50299;49.524;8.536;2023-03-22T01:03:17;100277.72;;;8.53;64.50
64053;BME280;50299;49.524;8.536;2023-03-22T01:05:44;100272.41;;;8.57;66.46
64053;BME280;50299;49.524;8.536;2023-03-22T01:08:11;100260.72;;;8.51;64.58
64053;BME280;50299;49.524;8.536;2023-03-22T01:10:39;100257.63;;;8.53;66.49
64053;BME280;50299;49.524;8.536;2023-03-22T01:13:07;100253.25;;;8.43;64.99
64053;BME280;50299;49.524;8.536;2023-03-22T01:15:33;100250.94;;;8.36;64.54
64053;BME280;50299;49.524;8.536;2023-03-22T01:18:00;100255.22;;;8.51;67.79
64053;BME280;50299;49.524;8.536;2023-03-22T01:20:27;100256.44;;;8.28;63.98
64053;BME280;50299;49.524;8.536;2023-03-22T01:22:53;100251.97;;;8.09;63.59
64053;BME280;50299;49.524;8.536;2023-03-22T01:25:20;100249.09;;;8.14;66.62
64053;BME280;50299;49.524;8.536;2023-03-22T01:27:46;100252.13;;;8.13;66.13
64053;BME280;50299;49.524;8.536;2023-03-22T01:30:13;100240.97;;;8.18;65.49
64053;BME280;50299;49.524;8.536;2023-03-22T01:32:39;100243.47;;;8.28;62.95
64053;BME280;50299;49.524;8.536;2023-03-22T01:35:07;100242.34;;;8.38;66.13
64053;BME280;50299;49.524;8.536;2023-03-22T01:37:33;100245.78;;;8.44;66.61
64053;BME280;50299;49.524;8.536;2023-03-22T01:40:02;100248.53;;;8.44;65.71
64053;BME280;50299;49.524;8.536;2023-03-22T01:42:29;100252.59;;;8.46;64.32
64053;BME280;50299;49.524;8.536;2023-03-22T01:47:56;100241.59;;;8.06;63.44
64053;BME280;50299;49.524;8.536;2023-03-22T01:50:24;100243.16;;;7.90;63.66
64053;BME280;50299;49.524;8.536;2023-03-22T01:52:52;100251.84;;;7.83;65.14
64053;BME280;50299;49.524;8.536;2023-03-22T01:55:18;100234.06;;;7.89;67.11
64053;BME280;50299;49.524;8.536;2023-03-22T01:57:48;100245.00;;;7.81;63.62
64053;BME280;50299;49.524;8.536;2023-03-22T02:00:16;100242.22;;;7.72;65.89
64053;BME280;50299;49.524;8.536;2023-03-22T02:02:47;100236.22;;;7.70;65.09
64053;BME280;50299;49.524;8.536;2023-03-22T02:05:15;100242.97;;;7.64;65.80
64053;BME280;50299;49.524;8.536;2023-03-22T02:07:42;100243.34;;;7.71;67.38
64053;BME280;50299;49.524;8.536;2023-03-22T02:10:21;100233.63;;;7.65;67.06
64053;BME280;50299;49.524;8.536;2023-03-22T02:13:16;100231.78;;;7.60;65.13
64053;BME280;50299;49.524;8.536;2023-03-22T02:16:08;100235.44;;;7.70;66.90
64053;BME280;50299;49.524;8.536;2023-03-22T02:18:48;100230.19;;;7.91;69.21
64053;BME280;50299;49.524;8.536;2023-03-22T02:24:11;100230.91;;;8.13;65.88
64053;BME280;50299;49.524;8.536;2023-03-22T02:26:56;100230.28;;;8.17;67.37
64053;BME280;50299;49.524;8.536;2023-03-22T02:29:38;100224.59;;;8.13;63.25
64053;BME280;50299;49.524;8.536;2023-03-22T02:35:23;100223.44;;;8.05;62.33
64053;BME280;50299;49.524;8.536;2023-03-22T02:38:23;100219.91;;;8.13;66.46
64053;BME280;50299;49.524;8.536;2023-03-22T02:41:11;100223.47;;;8.14;61.39
64053;BME280;50299;49.524;8.536;2023-03-22T02:46:22;100213.22;;;8.46;67.67
64053;BME280;50299;49.524;8.536;2023-03-22T02:49:15;100217.44;;;8.52;65.57
64053;BME280;50299;49.524;8.536;2023-03-22T02:51:59;100210.91;;;8.30;63.24
64053;BME280;50299;49.524;8.536;2023-03-22T02:54:34;100208.91;;;8.22;64.63
64053;BME280;50299;49.524;8.536;2023-03-22T02:57:16;100210.56;;;8.23;66.87
64053;BME280;50299;49.524;8.536;2023-03-22T02:59:46;100208.66;;;8.32;62.24
64053;BME280;50299;49.524;8.536;2023-03-22T03:02:15;100208.13;;;8.30;63.65
64053;BME280;50299;49.524;8.536;2023-03-22T03:04:47;100205.53;;;8.25;64.22
64053;BME280;50299;49.524;8.536;2023-03-22T03:07:18;100202.00;;;8.33;67.67
64053;BME280;50299;49.524;8.536;2023-03-22T03:09:46;100204.13;;;8.36;63.89
64053;BME280;50299;49.524;8.536;2023-03-22T03:12:18;100209.00;;;8.39;64.08
64053;BME280;50299;49.524;8.536;2023-03-22T03:14:45;100203.63;;;8.34;65.36
64053;BME280;50299;49.524;8.536;2023-03-22T03:26:33;100208.09;;;8.79;67.36
64053;BME280;50299;49.524;8.536;2023-03-22T03:29:02;100209.25;;;8.78;64.73
64053;BME280;50299;49.524;8.536;2023-03-22T03:31:34;100206.50;;;8.69;65.08
64053;BME280;50299;49.524;8.536;2023-03-22T03:34:16;100209.59;;;8.76;62.23
64053;BME280;50299;49.524;8.536;2023-03-22T03:37:06;100203.22;;;8.67;63.01
64053;BME280;50299;49.524;8.536;2023-03-22T03:39:41;100212.63;;;8.66;65.86
64053;BME280;50299;49.524;8.536;2023-03-22T03:42:12;100197.25;;;8.65;63.94
64053;BME280;50299;49.524;8.536;2023-03-22T03:44:40;100205.94;;;8.58;63.27
64053;BME280;50299;49.524;8.536;2023-03-22T03:47:09;100207.06;;;8.49;65.33
64053;BME280;50299;49.524;8.536;2023-03-22T03:49:36;100199.75;;;8.35;64.33
64053;BME280;50299;49.524;8.536;2023-03-22T03:52:03;100204.09;;;8.28;62.45
64053;BME280;50299;49.524;8.536;2023-03-22T03:54:30;100197.88;;;8.13;64.11
64053;BME280;50299;49.524;8.536;2023-03-22T03:56:57;100187.31;;;7.98;63.47
64053;BME280;50299;49.524;8.536;2023-03-22T03:59:23;100192.63;;;7.86;65.57
64053;BME280;50299;49.524;8.536;2023-03-22T04:01:50;100191.28;;;7.83;63.21
64053;BME280;50299;49.524;8.536;2023-03-22T04:04:19;100189.69;;;7.82;64.06
64053;BME280;50299;49.524;8.536;2023-03-22T04:06:56;100189.53;;;7.87;66.25
64053;BME280;50299;49.524;8.536;2023-03-22T04:09:25;100187.41;;;7.84;64.32
64053;BME280;50299;49.524;8.536;2023-03-22T04:11:53;100182.00;;;7.71;65.58
64053;BME280;50299;49.524;8.536;2023-03-22T04:14:20;100178.63;;;7.74;65.25
64053;BME280;50299;49.524;8.536;2023-03-22T04:16:49;100186.63;;;7.53;64.71
64053;BME280;50299;49.524;8.536;2023-03-22T04:19:16;100181.63;;;7.32;65.27
64053;BME280;50299;49.524;8.536;2023-03-22T04:21:43;100181.59;;;7.10;66.06
64053;BME280;50299;49.524;8.536;2023-03-22T04:24:11;100171.22;;;7.07;65.27
64053;BME280;50299;49.524;8.536;2023-03-22T04:26:38;100168.41;;;6.98;67.50
64053;BME280;50299;49.524;8.536;2023-03-22T04:29:05;100163.84;;;6.94;67.12
64053;BME280;50299;49.524;8.536;2023-03-22T04:31:32;100160.34;;;6.79;64.67
64053;BME280;50299;49.524;8.536;2023-03-22T04:34:01;100157.97;;;6.86;67.50
64053;BME280;50299;49.524;8.536;2023-03-22T04:36:32;100159.41;;;6.84;65.98
64053;BME280;50299;49.524;8.536;2023-03-22T04:39:03;100160.72;;;6.64;65.31
64053;BME280;50299;49.524;8.536;2023-03-22T04:41:31;100160.75;;;6.50;65.66
64053;BME280;50299;49.524;8.536;2023-03-22T04:43:58;100160.47;;;6.38;66.58
64053;BME280;50299;49.524;8.536;2023-03-22T04:46:34;100155.69;;;6.30;66.90
64053;BME280;50299;49.524;8.536;2023-03-22T04:49:01;100154.47;;;6.22;68.02
64053;BME280;50299;49.524;8.536;2023-03-22T04:51:28;100153.25;;;6.14;67.06
64053;BME280;50299;49.524;8.536;2023-03-22T04:53:57;100154.88;;;6.02;67.20
64053;BME280;50299;49.524;8.536;2023-03-22T04:56:25;100153.44;;;5.90;68.40
64053;BME280;50299;49.524;8.536;2023-03-22T04:58:51;100154.38;;;5.86;68.62
64053;BME280;50299;49.524;8.536;2023-03-22T05:01:18;100161.25;;;5.56;68.83
64053;BME280;50299;49.524;8.536;2023-03-22T05:03:44;100161.78;;;5.72;68.57
64053;BME280;50299;49.524;8.536;2023-03-22T05:06:13;100154.88;;;5.60;68.32
64053;BME280;50299;49.524;8.536;2023-03-22T05:08:39;100158.41;;;5.47;68.99
64053;BME280;50299;49.524;8.536;2023-03-22T05:11:11;100155.34;;;5.49;68.91
64053;BME280;50299;49.524;8.536;2023-03-22T05:13:39;100159.31;;;5.56;70.17
64053;BME280;50299;49.524;8.536;2023-03-22T05:16:06;100158.91;;;5.63;70.69
64053;BME280;50299;49.524;8.536;2023-03-22T05:18:33;100159.50;;;5.46;69.36
64053;BME280;50299;49.524;8.536;2023-03-22T05:21:12;100164.91;;;5.51;69.54
64053;BME280;50299;49.524;8.536;2023-03-22T05:23:42;100155.44;;;5.44;71.41
64053;BME280;50299;49.524;8.536;2023-03-22T05:26:10;100158.50;;;5.56;69.33
64053;BME280;50299;49.524;8.536;2023-03-22T05:28:42;100159.59;;;5.55;70.21
64053;BME280;50299;49.524;8.536;2023-03-22T05:31:09;100152.81;;;5.52;68.50
64053;BME280;50299;49.524;8.536;2023-03-22T05:33:37;100160.19;;;5.38;71.40
64053;BME280;50299;49.524;8.536;2023-03-22T05:36:03;100165.28;;;5.45;68.77
64053;BME280;50299;49.524;8.536;2023-03-22T05:38:30;100166.28;;;5.35;71.18
64053;BME280;50299;49.524;8.536;2023-03-22T05:40:56;100166.97;;;5.27;69.45
64053;BME280;50299;49.524;8.536;2023-03-22T05:43:23;100171.91;;;5.44;69.26
64053;BME280;50299;49.524;8.536;2023-03-22T05:45:49;100169.16;;;5.44;70.45
64053;BME280;50299;49.524;8.536;2023-03-22T05:48:19;100181.78;;;5.26;69.84
64053;BME280;50299;49.524;8.536;2023-03-22T05:50:46;100188.03;;;5.45;69.55
64053;BME280;50299;49.524;8.536;2023-03-22T05:53:14;100190.41;;;5.52;70.77
64053;BME280;50299;49.524;8.536;2023-03-22T05:55:41;100182.75;;;5.49;68.72
64053;BME280;50299;49.524;8.536;2023-03-22T05:58:08;100188.69;;;5.56;69.09
64053;BME280;50299;49.524;8.536;2023-03-22T06:00:35;100186.75;;;5.70;71.80
64053;BME280;50299;49.524;8.536;2023-03-22T06:03:02;100180.06;;;5.76;68.62
64053;BME280;50299;49.524;8.536;2023-03-22T06:05:30;100187.81;;;6.02;70.35
64053;BME280;50299;49.524;8.536;2023-03-22T06:07:58;100187.91;;;6.24;67.61
64053;BME280;50299;49.524;8.536;2023-03-22T06:10:24;100182.31;;;6.43;67.03
64053;BME280;50299;49.524;8.536;2023-03-22T06:12:52;100185.88;;;6.44;68.32
64053;BME280;50299;49.524;8.536;2023-03-22T06:15:19;100187.56;;;6.53;66.57
64053;BME280;50299;49.524;8.536;2023-03-22T06:17:45;100176.94;;;6.74;67.35
64053;BME280;50299;49.524;8.536;2023-03-22T06:20:13;100184.44;;;6.82;65.02
64053;BME280;50299;49.524;8.536;2023-03-22T06:22:40;100179.53;;;6.93;64.77
64053;BME280;50299;49.524;8.536;2023-03-22T06:25:07;100191.72;;;7.01;62.95
64053;BME280;50299;49.524;8.536;2023-03-22T06:27:34;100184.97;;;7.07;66.06
64053;BME280;50299;49.524;8.536;2023-03-22T06:30:01;100188.16;;;7.23;62.96
64053;BME280;50299;49.524;8.536;2023-03-22T06:32:28;100180.91;;;7.27;65.24
64053;BME280;50299;49.524;8.536;2023-03-22T06:34:55;100189.97;;;7.27;63.29
64053;BME280;50299;49.524;8.536;2023-03-22T06:37:21;100191.34;;;7.38;64.06
64053;BME280;50299;49.524;8.536;2023-03-22T06:39:48;100187.25;;;7.50;63.91
64053;BME280;50299;49.524;8.536;2023-03-22T06:42:16;100184.56;;;7.67;63.10
64053;BME280;50299;49.524;8.536;2023-03-22T06:44:43;100185.44;;;7.76;62.95
64053;BME280;50299;49.524;8.536;2023-03-22T06:47:10;100188.47;;;7.66;60.81
64053;BME280;50299;49.524;8.536;2023-03-22T06:49:37;100187.38;;;7.76;63.63
64053;BME280;50299;49.524;8.536;2023-03-22T06:52:04;100194.88;;;7.93;61.63
64053;BME280;50299;49.524;8.536;2023-03-22T06:54:31;100192.88;;;8.16;62.75
64053;BME280;50299;49.524;8.536;2023-03-22T06:57:00;100203.63;;;8.34;59.94
64053;BME280;50299;49.524;8.536;2023-03-22T06:59:26;100197.53;;;8.63;62.17
64053;BME280;50299;49.524;8.536;2023-03-22T07:01:53;100201.97;;;8.91;61.33
64053;BME280;50299;49.524;8.536;2023-03-22T07:04:20;100201.59;;;9.35;58.37
64053;BME280;50299;49.524;8.536;2023-03-22T07:06:46;100206.00;;;9.28;60.30
64053;BME280;50299;49.524;8.536;2023-03-22T07:09:16;100202.28;;;9.24;60.42
64053;BME280;50299;49.524;8.536;2023-03-22T07:11:42;100208.72;;;9.45;60.01
64053;BME280;50299;49.524;8.536;2023-03-22T07:14:10;100219.06;;;9.74;58.47
64053;BME280;50299;49.524;8.536;2023-03-22T07:16:36;100213.88;;;9.64;59.08
64053;BME280;50299;49.524;8.536;2023-03-22T07:19:03;100219.84;;;9.92;58.88
64053;BME280;50299;49.524;8.536;2023-03-22T07:21:29;100217.63;;;10.15;56.39
64053;BME280;50299;49.524;8.536;2023-03-22T07:23:56;100220.22;;;10.20;58.87
64053;BME280;50299;49.524;8.536;2023-03-22T07:26:23;100218.94;;;10.47;57.30
64053;BME280;50299;49.524;8.536;2023-03-22T07:28:52;100216.50;;;10.46;54.33
64053;BME280;50299;49.524;8.536;2023-03-22T07:31:18;100223.47;;;10.52;56.53
64053;BME280;50299;49.524;8.536;2023-03-22T07:33:45;100218.72;;;10.52;54.19
64053;BME280;50299;49.524;8.536;2023-03-22T07:36:11;100221.06;;;10.71;57.97
64053;BME280;50299;49.524;8.536;2023-03-22T07:38:38;100229.22;;;10.68;55.38
64053;BME280;50299;49.524;8.536;2023-03-22T07:41:06;100217.66;;;10.74;56.24
64053;BME280;50299;49.524;8.536;2023-03-22T07:43:33;100224.34;;;10.94;56.36
64053;BME280;50299;49.524;8.536;2023-03-22T07:46:18;100225.88;;;11.25;54.29
64053;BME280;50299;49.524;8.536;2023-03-22T07:48:44;100228.72;;;11.16;53.81
64053;BME280;50299;49.524;8.536;2023-03-22T07:51:11;100225.28;;;11.19;56.48
64053;BME280;50299;49.524;8.536;2023-03-22T07:53:37;100215.25;;;11.48;53.67
64053;BME280;50299;49.524;8.536;2023-03-22T07:56:04;100208.56;;;11.49;53.40
64053;BME280;50299;49.524;8.536;2023-03-22T07:58:31;100215.69;;;11.17;54.00
64053;BME280;50299;49.524;8.536;2023-03-22T08:01:03;100210.25;;;10.87;54.19
64053;BME280;50299;49.524;8.536;2023-03-22T08:03:29;100210.13;;;10.83;55.46
64053;BME280;50299;49.524;8.536;2023-03-22T08:06:00;100206.50;;;10.62;53.16
64053;BME280;50299;49.524;8.536;2023-03-22T08:08:28;100212.66;;;10.89;55.17
64053;BME280;50299;49.524;8.536;2023-03-22T08:10:54;100204.09;;;11.23;53.80
64053;BME280;50299;49.524;8.536;2023-03-22T08:13:24;100209.25;;;11.46;57.04
64053;BME280;50299;49.524;8.536;2023-03-22T08:15:54;100202.78;;;11.42;52.87
64053;BME280;50299;49.524;8.536;2023-03-22T08:18:21;100202.72;;;11.29;52.35
64053;BME280;50299;49.524;8.536;2023-03-22T08:20:55;100205.19;;;10.89;53.63
64053;BME280;50299;49.524;8.536;2023-03-22T08:23:24;100207.69;;;10.73;53.95
64053;BME280;50299;49.524;8.536;2023-03-22T08:26:07;100201.22;;;10.78;53.57
64053;BME280;50299;49.524;8.536;2023-03-22T08:28:34;100212.88;;;10.83;56.14
64053;BME280;50299;49.524;8.536;2023-03-22T08:31:00;100197.22;;;10.37;55.19
64053;BME280;50299;49.524;8.536;2023-03-22T08:33:27;100197.13;;;10.54;55.89
64053;BME280;50299;49.524;8.536;2023-03-22T08:36:04;100199.63;;;10.39;55.88
64053;BME280;50299;49.524;8.536;2023-03-22T08:38:32;100195.56;;;10.74;55.64
64053;BME280;50299;49.524;8.536;2023-03-22T08:40:59;100179.41;;;10.76;55.80
64053;BME280;50299;49.524;8.536;2023-03-22T08:43:25;100191.28;;;10.77;53.70
64053;BME280;50299;49.524;8.536;2023-03-22T08:45:52;100189.47;;;11.23;53.74
64053;BME280;50299;49.524;8.536;2023-03-22T08:48:18;100184.09;;;11.51;54.64
64053;BME280;50299;49.524;8.536;2023-03-22T08:50:45;100185.41;;;11.53;52.31
64053;BME280;50299;49.524;8.536;2023-03-22T08:53:11;100176.63;;;11.64;53.07
64053;BME280;50299;49.524;8.536;2023-03-22T08:55:39;100179.75;;;10.96;52.70
64053;BME280;50299;49.524;8.536;2023-03-22T08:58:14;100183.25;;;11.38;54.22
64053;BME280;50299;49.524;8.536;2023-03-22T09:00:41;100176.75;;;11.67;52.29
64053;BME280;50299;49.524;8.536;2023-03-22T09:03:15;100165.72;;;11.01;53.10
64053;BME280;50299;49.524;8.536;2023-03-22T09:05:41;100163.69;;;11.10;50.46
64053;BME280;50299;49.524;8.536;2023-03-22T09:08:08;100163.50;;;10.94;52.21
64053;BME280;50299;49.524;8.536;2023-03-22T09:10:46;100158.09;;;10.98;53.89
64053;BME280;50299;49.524;8.536;2023-03-22T09:13:16;100170.22;;;11.05;52.05
64053;BME280;50299;49.524;8.536;2023-03-22T09:15:45;100163.22;;;11.08;53.68
64053;BME280;50299;49.524;8.536;2023-03-22T09:18:12;100162.81;;;10.76;50.16
64053;BME280;50299;49.524;8.536;2023-03-22T09:20:38;100158.41;;;10.54;51.89
64053;BME280;50299;49.524;8.536;2023-03-22T09:23:06;100155.94;;;10.61;52.17
64053;BME280;50299;49.524;8.536;2023-03-22T09:25:32;100159.03;;;11.23;51.82
64053;BME280;50299;49.524;8.536;2023-03-22T09:27:59;100160.00;;;11.51;49.69
64053;BME280;50299;49.524;8.536;2023-03-22T09:30:25;100155.13;;;11.36;49.96
64053;BME280;50299;49.524;8.536;2023-03-22T09:32:52;100141.19;;;11.45;50.39
64053;BME280;50299;49.524;8.536;2023-03-22T09:35:19;100149.22;;;11.71;48.74
64053;BME280;50299;49.524;8.536;2023-03-22T09:37:46;100141.25;;;11.69;49.69
64053;BME280;50299;49.524;8.536;2023-03-22T09:40:12;100139.75;;;11.72;49.86
64053;BME280;50299;49.524;8.536;2023-03-22T09:42:45;100139.41;;;12.47;48.03
64053;BME280;50299;49.524;8.536;2023-03-22T09:45:19;100135.22;;;12.53;48.63
64053;BME280;50299;49.524;8.536;2023-03-22T09:47:51;100140.34;;;12.63;46.04
64053;BME280;50299;49.524;8.536;2023-03-22T09:50:25;100144.44;;;12.81;48.99
64053;BME280;50299;49.524;8.536;2023-03-22T09:52:53;100139.00;;;13.13;46.33
64053;BME280;50299;49.524;8.536;2023-03-22T09:58:27;100135.75;;;12.30;47.61
64053;BME280;50299;49.524;8.536;2023-03-22T10:04:00;100111.94;;;11.68;48.52
64053;BME280;50299;49.524;8.536;2023-03-22T10:06:30;100112.78;;;11.81;49.22
64053;BME280;50299;49.524;8.536;2023-03-22T10:11:41;100103.44;;;11.73;49.64
64053;BME280;50299;49.524;8.536;2023-03-22T10:17:07;100106.47;;;11.02;49.29
64053;BME280;50299;49.524;8.536;2023-03-22T10:20:16;100105.22;;;10.99;49.61
64053;BME280;50299;49.524;8.536;2023-03-22T10:22:45;100099.19;;;11.30;49.30
64053;BME280;50299;49.524;8.536;2023-03-22T10:25:16;100099.28;;;11.22;50.78
64053;BME280;50299;49.524;8.536;2023-03-22T10:27:48;100105.88;;;11.29;49.35
64053;BME280;50299;49.524;8.536;2023-03-22T10:30:22;100115.31;;;11.16;50.02
64053;BME280;50299;49.524;8.536;2023-03-22T10:32:59;100108.38;;;11.22;49.99
64053;BME280;50299;49.524;8.536;2023-03-22T10:35:30;100103.22;;;11.33;50.64
64053;BME280;50299;49.524;8.536;2023-03-22T10:38:01;100095.03;;;11.82;50.97
64053;BME280;50299;49.524;8.536;2023-03-22T10:40:32;100103.41;;;12.22;49.80
64053;BME280;50299;49.524;8.536;2023-03-22T10:43:30;100089.28;;;12.40;48.90
64053;BME280;50299;49.524;8.536;2023-03-22T10:46:02;100093.41;;;12.46;48.42
64053;BME280;50299;49.524;8.536;2023-03-22T10:48:42;100095.50;;;12.49;48.70
64053;BME280;50299;49.524;8.536;2023-03-22T10:51:25;100092.03;;;12.64;47.11
64053;BME280;50299;49.524;8.536;2023-03-22T10:54:00;100081.63;;;12.61;49.00
64053;BME280;50299;49.524;8.536;2023-03-22T10:56:28;100079.13;;;12.84;47.80
64053;BME280;50299;49.524;8.536;2023-03-22T10:58:55;100088.59;;;12.43;46.96
64053;BME280;50299;49.524;8.536;2023-03-22T11:01:31;100089.31;;;12.80;45.05
64053;BME280;50299;49.524;8.536;2023-03-22T11:04:17;100089.97;;;12.89;45.87
64053;BME280;50299;49.524;8.536;2023-03-22T11:06:51;100078.91;;;13.05;45.31
64053;BME280;50299;49.524;8.536;2023-03-22T11:09:24;100090.22;;;12.44;45.04
64053;BME280;50299;49.524;8.536;2023-03-22T11:12:01;100080.03;;;12.48;45.98
64053;BME280;50299;49.524;8.536;2023-03-22T11:14:41;100079.53;;;13.14;46.83
64053;BME280;50299;49.524;8.536;2023-03-22T11:17:11;100091.13;;;13.48;45.76
64053;BME280;50299;49.524;8.536;2023-03-22T11:19:54;100073.31;;;13.65;46.33
64053;BME280;50299;49.524;8.536;2023-03-22T11:22:55;100070.03;;;13.75;43.63
64053;BME280;50299;49.524;8.536;2023-03-22T11:25:30;100070.22;;;13.66;44.48
64053;BME280;50299;49.524;8.536;2023-03-22T11:30:32;100069.31;;;13.78;43.01
64053;BME280;50299;49.524;8.536;2023-03-22T11:33:18;100058.13;;;14.10;43.46
64053;BME280;50299;49.524;8.536;2023-03-22T11:35:52;100059.34;;;14.47;42.31
64053;BME280;50299;49.524;8.536;2023-03-22T11:38:35;100047.16;;;14.33;43.26
64053;BME280;50299;49.524;8.536;2023-03-22T11:41:06;100058.50;;;14.63;43.20
64053;BME280;50299;49.524;8.536;2023-03-22T11:43:41;100031.94;;;14.65;43.42
64053;BME280;50299;49.524;8.536;2023-03-22T11:46:09;100038.00;;;14.51;42.63
64053;BME280;50299;49.524;8.536;2023-03-22T11:48:39;100045.50;;;14.31;40.69
64053;BME280;50299;49.524;8.536;2023-03-22T11:51:10;100038.66;;;14.45;40.83
64053;BME280;50299;49.524;8.536;2023-03-22T11:53:39;100038.78;;;14.71;40.66
64053;BME280;50299;49.524;8.536;2023-03-22T11:56:09;100032.97;;;15.19;42.60
64053;BME280;50299;49.524;8.536;2023-03-22T11:58:56;100019.41;;;15.40;41.12
64053;BME280;50299;49.524;8.536;2023-03-22T12:01:33;100018.16;;;15.15;38.22
64053;BME280;50299;49.524;8.536;2023-03-22T12:04:04;100032.66;;;14.82;39.18
64053;BME280;50299;49.524;8.536;2023-03-22T12:06:37;100018.16;;;14.53;42.69
64053;BME280;50299;49.524;8.536;2023-03-22T12:09:31;100009.84;;;14.95;41.39
64053;BME280;50299;49.524;8.536;2023-03-22T12:12:03;100020.28;;;14.60;39.88
64053;BME280;50299;49.524;8.536;2023-03-22T12:19:58;100011.50;;;14.77;39.75
64053;BME280;50299;49.524;8.536;2023-03-22T12:22:36;100001.75;;;14.67;41.40
64053;BME280;50299;49.524;8.536;2023-03-22T12:25:13;99996.59;;;15.12;41.54
64053;BME280;50299;49.524;8.536;2023-03-22T12:27:48;99989.63;;;15.44;39.83
64053;BME280;50299;49.524;8.536;2023-03-22T12:35:26;99976.53;;;15.71;38.72
64053;BME280;50299;49.524;8.536;2023-03-22T12:37:56;99964.44;;;15.37;41.18
64053;BME280;50299;49.524;8.536;2023-03-22T12:40:26;99967.25;;;15.64;39.73
64053;BME280;50299;49.524;8.536;2023-03-22T12:42:59;99955.66;;;15.62;40.67
64053;BME280;50299;49.524;8.536;2023-03-22T12:45:29;99954.81;;;16.14;40.36
64053;BME280;50299;49.524;8.536;2023-03-22T12:48:18;99952.00;;;15.84;38.26
64053;BME280;50299;49.524;8.536;2023-03-22T12:50:51;99950.16;;;15.65;38.19
64053;BME280;50299;49.524;8.536;2023-03-22T12:53:19;99953.03;;;15.46;37.14
64053;BME280;50299;49.524;8.536;2023-03-22T12:55:48;99955.94;;;15.53;34.53
64053;BME280;50299;49.524;8.536;2023-03-22T12:58:20;99948.53;;;15.38;35.44
64053;BME280;50299;49.524;8.536;2023-03-22T13:00:51;99941.56;;;15.24;36.93
64053;BME280;50299;49.524;8.536;2023-03-22T13:03:26;99946.47;;;14.85;35.00
64053;BME280;50299;49.524;8.536;2023-03-22T13:06:16;99946.44;;;14.43;35.06
64053;BME280;50299;49.524;8.536;2023-03-22T13:09:10;99945.97;;;14.02;34.69
64053;BME280;50299;49.524;8.536;2023-03-22T13:11:44;99936.50;;;14.42;34.58
64053;BME280;50299;49.524;8.536;2023-03-22T13:19:53;99933.09;;;13.94;34.45
64053;BME280;50299;49.524;8.536;2023-03-22T13:27:55;99924.09;;;13.81;37.40
64053;BME280;50299;49.524;8.536;2023-03-22T13:38:22;99919.16;;;14.29;33.20
64053;BME280;50299;49.524;8.536;2023-03-22T13:43:50;99925.28;;;13.80;33.49
64053;BME280;50299;49.524;8.536;2023-03-22T13:49:11;99903.06;;;14.38;33.24
64053;BME280;50299;49.524;8.536;2023-03-22T13:51:42;99913.66;;;14.52;33.48
64053;BME280;50299;49.524;8.536;2023-03-22T13:54:16;99908.56;;;14.15;33.72
64053;BME280;50299;49.524;8.536;2023-03-22T13:56:50;99910.22;;;14.39;32.43
64053;BME280;50299;49.524;8.536;2023-03-22T14:04:42;99908.91;;;15.48;32.04
64053;BME280;50299;49.524;8.536;2023-03-22T14:07:20;99909.09;;;15.62;30.84
64053;BME280;50299;49.524;8.536;2023-03-22T14:09:51;99901.75;;;16.07;31.97
64053;BME280;50299;49.524;8.536;2023-03-22T14:15:07;99898.44;;;16.32;29.97
64053;BME280;50299;49.524;8.536;2023-03-22T14:17:51;99889.47;;;16.49;30.58
64053;BME280;50299;49.524;8.536;2023-03-22T14:20:22;99889.91;;;16.92;28.58
64053;BME280;50299;49.524;8.536;2023-03-22T14:22:56;99874.94;;;16.29;29.31
64053;BME280;50299;49.524;8.536;2023-03-22T14:25:27;99873.34;;;16.32;30.94
64053;BME280;50299;49.524;8.536;2023-03-22T14:27:54;99876.53;;;16.30;30.76
64053;BME280;50299;49.524;8.536;2023-03-22T14:32:58;99884.09;;;15.96;30.67
64053;BME280;50299;49.524;8.536;2023-03-22T14:35:36;99880.41;;;15.88;31.00
64053;BME280;50299;49.524;8.536;2023-03-22T14:38:15;99872.28;;;15.76;30.38
64053;BME280;50299;49.524;8.536;2023-03-22T14:40:41;99881.66;;;16.28;33.01